This is the latest recevied weather packets stored in our database for station/object OH1KK. If no packets are shown the sender has not sent any weather packets the latest 10 day(s).
| Time | Temp. | Humidity | Pressure | Rain* | Wind** | Luminosity | Snow |
|---|---|---|---|---|---|---|---|
| 1777939480 | 2.22° C | 96% | 989 hPa | 0 mm | - | - | - |
| 1777938565 | 2.22° C | 95% | 989 hPa | 0 mm | - | - | - |
| 1777937650 | 2.22° C | 95% | 989.1 hPa | 0 mm | - | - | - |
| 1777935880 | 2.22° C | 95% | 989.1 hPa | 0 mm | - | - | - |
| 1777934965 | 2.22° C | 95% | 989.6 hPa | 0 mm | - | - | - |
| 1777934050 | 2.22° C | 95% | 989.5 hPa | 0 mm | - | - | - |
| 1777933196 | 2.22° C | 94% | 989.6 hPa | 0 mm | - | - | - |
| 1777930451 | 2.78° C | 92% | 989.2 hPa | 0 mm | - | - | - |
| 1777929597 | 2.78° C | 92% | 989.1 hPa | 0 mm | - | - | - |
| 1777928681 | 3.33° C | 92% | 989 hPa | 0 mm | - | - | - |
| 1777927767 | 3.33° C | 92% | 989.1 hPa | 0 mm | - | - | - |
| 1777926852 | 3.89° C | 92% | 989.2 hPa | 0 mm | - | - | - |
| 1777925998 | 4.44° C | 91% | 988.9 hPa | 0 mm | - | - | - |
| 1777925082 | 5° C | 92% | 988.9 hPa | 0 mm | - | - | - |
| 1777924167 | 5° C | 92% | 989.1 hPa | 0 mm | - | - | - |
| 1777922398 | 5° C | 88% | 989.2 hPa | 0 mm | - | - | - |
| 1777921483 | 5.56° C | 84% | 989.1 hPa | 0 mm | - | - | - |
| 1777920569 | 5.56° C | 80% | 989.2 hPa | 0 mm | - | - | - |
| 1777919653 | 6.11° C | 75% | 989.4 hPa | 0 mm | - | - | - |
| 1777914285 | 7.22° C | 56% | 989.6 hPa | 0 mm | - | - | - |
| 1777910687 | 7.22° C | 51% | 989.9 hPa | 0 mm | - | - | - |
| 1777908857 | 9.44° C | 45% | 989.8 hPa | 0 mm | - | - | - |
| 1777907087 | 12.22° C | 38% | 989.6 hPa | 0 mm | - | - | - |
| 1777905258 | 12.22° C | 36% | 989.4 hPa | 0 mm | - | - | - |
| 1777904343 | 12.22° C | 37% | 990 hPa | 0 mm | - | - | - |
* Rain latest hour (hover to see other rain measurements)
** Current wind speed in m/s (hover to see current wind gust speed)